.
WxDataArchive / Data Records for 2015-06-11
2015-06-10 June 2015 2015-06-12

Data Records for Thursday, 11 June 2015

Time	Temp	Chill	HIndex	Humid	Dewpt	 Wind 	HiWind	WindDir	Rain 	Barom
-----	----	-----	------	-----	-----	------	------	-------	-----	-----
00:00	77.2	77.2	79.0	69	66.2	0	1	248	0.00	29.772 
00:05	76.5	76.5	78.2	71	66.4	0	2	248	0.00	29.772 
00:10	76.0	76.0	77.5	73	66.7	0	0	---	0.00	29.772 
00:15	75.4	75.4	76.6	75	66.9	0	2	248	0.00	29.769 
00:20	75.3	75.3	76.4	76	67.2	0	1	248	0.00	29.769 
00:25	75.1	75.1	76.1	77	67.4	0	0	---	0.00	29.769 
00:30	74.9	74.9	74.9	77	67.2	0	0	---	0.00	29.769 
00:35	74.7	74.7	74.7	78	67.4	0	1	248	0.00	29.769 
00:40	74.6	74.6	74.6	78	67.3	0	0	---	0.00	29.769 
00:45	74.4	74.4	74.4	79	67.4	0	0	---	0.00	29.771 
00:50	74.2	74.2	74.2	80	67.6	0	1	248	0.00	29.771 
00:55	74.2	74.2	74.2	79	67.3	0	1	248	0.00	29.771 
01:00	74.2	74.2	74.2	79	67.3	0	1	248	0.00	29.770 
01:05	74.2	74.2	74.2	79	67.3	0	0	---	0.00	29.770 
01:10	74.2	74.2	74.2	78	66.9	0	0	---	0.00	29.770 
01:15	74.4	74.4	74.4	77	66.7	0	3	248	0.00	29.772 
01:20	74.6	74.6	74.6	77	66.9	0	0	---	0.00	29.772 
01:25	74.7	74.7	74.7	76	66.6	0	0	---	0.00	29.772 
01:30	74.9	74.9	74.9	76	66.8	0	0	---	0.00	29.773 
01:35	74.9	74.9	74.9	76	66.8	0	0	---	0.00	29.773 
01:40	74.9	74.9	74.9	76	66.8	0	0	---	0.00	29.773 
01:45	74.9	74.9	74.9	76	66.8	0	0	---	0.00	29.782 
01:50	75.3	75.3	76.5	75	66.8	0	1	248	0.00	29.782 
01:55	75.8	75.8	77.2	74	66.9	0	1	248	0.00	29.782 
02:00	75.6	75.6	76.9	75	67.1	0	0	---	0.00	29.795 
02:05	75.4	75.4	76.5	76	67.3	0	0	---	0.00	29.795 
02:10	75.1	75.1	76.2	76	67.0	0	0	---	0.00	29.795 
02:15	74.9	74.9	74.9	77	67.2	0	0	---	0.00	29.791 
02:20	74.4	74.4	74.4	78	67.1	0	0	---	0.00	29.791 
02:25	74.2	74.2	74.2	78	66.9	0	0	---	0.00	29.791 
02:30	73.9	73.9	73.9	79	67.0	0	0	---	0.00	29.789 
02:35	73.7	73.7	73.7	80	67.1	0	0	---	0.00	29.789 
02:40	73.5	73.5	73.5	81	67.3	0	1	248	0.00	29.789 
02:45	73.3	73.3	73.3	81	67.1	0	0	---	0.00	29.784 
02:50	73.2	73.2	73.2	81	67.0	0	0	---	0.00	29.784 
02:55	73.0	73.0	73.0	81	66.8	0	0	---	0.00	29.784 
03:00	72.8	72.8	72.8	82	67.0	0	0	---	0.00	29.788 
03:05	72.7	72.7	72.7	82	66.9	0	0	---	0.00	29.788 
03:10	72.7	72.7	72.7	82	66.9	0	0	---	0.00	29.788 
03:15	72.5	72.5	72.5	82	66.7	0	0	---	0.00	29.786 
03:20	72.3	72.3	72.3	82	66.5	0	0	---	0.00	29.786 
03:25	72.1	72.1	72.1	83	66.6	0	0	---	0.00	29.786 
03:30	72.1	72.1	72.1	83	66.6	0	0	---	0.00	29.793 
03:35	72.0	72.0	72.0	83	66.5	0	0	---	0.00	29.793 
03:40	72.0	72.0	72.0	83	66.5	0	0	---	0.00	29.793 
03:45	72.1	72.1	72.1	83	66.6	0	0	---	0.00	29.792 
03:50	72.1	72.1	72.1	83	66.6	0	0	---	0.00	29.792 
03:55	72.1	72.1	72.1	83	66.6	0	0	---	0.00	29.792 
04:00	72.1	72.1	72.1	83	66.6	0	0	---	0.00	29.788 
04:05	72.0	72.0	72.0	83	66.5	0	0	---	0.00	29.788 
04:10	72.0	72.0	72.0	83	66.5	0	0	---	0.00	29.788 
04:15	71.8	71.8	71.8	83	66.3	0	0	---	0.00	29.790 
04:20	71.8	71.8	71.8	83	66.3	0	0	---	0.00	29.790 
04:25	71.6	71.6	71.6	83	66.2	0	0	---	0.00	29.790 
04:30	71.6	71.6	71.6	83	66.2	0	0	---	0.00	29.796 
04:35	71.6	71.6	71.6	84	66.5	0	0	---	0.00	29.796 
04:40	71.6	71.6	71.6	84	66.5	0	0	---	0.00	29.796 
04:45	71.6	71.6	71.6	84	66.5	0	0	---	0.00	29.797 
04:50	71.5	71.5	71.5	84	66.4	0	0	---	0.00	29.797 
04:55	71.5	71.5	71.5	84	66.4	0	0	---	0.00	29.797 
05:00	71.3	71.3	71.3	84	66.2	0	0	---	0.00	29.798 
05:05	71.1	71.1	71.1	84	66.0	0	0	---	0.00	29.798 
05:10	70.9	70.9	70.9	85	66.2	0	0	---	0.00	29.798 
05:15	70.6	70.6	70.6	85	65.9	0	0	---	0.00	29.799 
05:20	70.4	70.4	70.4	85	65.7	0	0	---	0.00	29.799 
05:25	70.3	70.3	70.3	86	65.9	0	0	---	0.00	29.799 
05:30	70.1	70.1	70.1	87	66.0	0	0	---	0.00	29.799 
05:35	70.1	70.1	70.1	87	66.0	0	0	---	0.00	29.799 
05:40	69.9	69.9	69.9	87	65.8	0	0	---	0.00	29.799 
05:45	69.9	69.9	69.9	88	66.2	0	0	---	0.00	29.799 
05:50	69.9	69.9	69.9	88	66.2	0	0	---	0.00	29.799 
05:55	69.8	69.8	69.8	88	66.1	0	0	---	0.00	29.799 
06:00	69.8	69.8	69.8	88	66.1	0	0	---	0.00	29.803 
06:05	69.6	69.6	69.6	88	65.9	0	0	---	0.00	29.803 
06:10	69.6	69.6	69.6	88	65.9	0	0	---	0.00	29.803 
06:15	69.6	69.6	69.6	88	65.9	0	0	---	0.00	29.810 
06:20	69.6	69.6	69.6	88	65.9	0	0	---	0.00	29.810 
06:25	69.6	69.6	69.6	88	65.9	0	0	---	0.00	29.810 
06:30	69.6	69.6	69.6	89	66.2	0	0	---	0.00	29.812 
06:35	69.6	69.6	69.6	89	66.2	0	0	---	0.00	29.812 
06:40	69.8	69.8	69.8	89	66.4	0	0	---	0.00	29.812 
06:45	69.9	69.9	69.9	89	66.5	0	0	---	0.00	29.816 
06:50	69.9	69.9	69.9	89	66.5	0	0	---	0.00	29.816 
06:55	70.1	70.1	70.1	90	67.0	0	0	---	0.00	29.816 
07:00	70.3	70.3	70.3	90	67.2	0	0	---	0.00	29.819 
07:05	70.3	70.3	70.3	90	67.2	0	0	---	0.00	29.819 
07:10	70.4	70.4	70.4	90	67.3	0	0	---	0.00	29.819 
07:15	70.4	70.4	70.4	90	67.3	0	0	---	0.00	29.832 
07:20	70.8	70.8	70.8	90	67.7	0	1	248	0.00	29.832 
07:25	70.9	70.9	70.9	90	67.8	0	0	---	0.00	29.832 
07:30	71.1	71.1	71.1	89	67.7	0	1	248	0.00	29.821 
07:35	71.3	71.3	71.3	89	67.9	0	2	248	0.00	29.821 
07:40	71.5	71.5	71.5	89	68.1	1	3	248	0.00	29.821 
07:45	71.8	71.8	71.8	89	68.4	0	1	248	0.00	29.823 
07:50	72.1	72.1	72.1	88	68.3	1	3	158	0.00	29.823 
07:55	72.5	72.5	72.5	87	68.4	1	4	158	0.00	29.823 
08:00	72.8	72.8	72.8	86	68.4	1	2	135	0.00	29.830 
08:05	73.3	73.3	73.3	86	68.8	0	2	135	0.00	29.830 
08:10	73.5	73.5	73.5	85	68.7	0	1	135	0.00	29.830 
08:15	73.7	73.7	73.7	84	68.6	0	2	22	0.00	29.833 
08:20	73.7	73.7	73.7	84	68.6	0	1	22	0.00	29.833 
08:25	73.7	73.7	73.7	85	68.9	1	3	22	0.00	29.833 
08:30	73.7	73.7	73.7	85	68.9	0	2	22	0.00	29.833 
08:35	73.7	73.7	73.7	86	69.2	0	1	22	0.00	29.833 
08:40	73.7	73.7	73.7	86	69.2	1	4	68	0.00	29.833 
08:45	73.7	73.7	73.7	86	69.2	2	5	90	0.00	29.830 
08:50	73.5	73.5	73.5	86	69.0	1	5	68	0.00	29.830 
08:55	73.5	73.5	73.5	86	69.0	1	3	68	0.00	29.830 
09:00	74.0	74.0	74.0	86	69.5	1	4	68	0.00	29.832 
09:05	74.4	74.4	74.4	85	69.6	1	3	68	0.00	29.832 
09:10	74.4	74.4	74.4	85	69.6	1	5	68	0.00	29.832 
09:15	74.4	74.4	74.4	84	69.2	1	5	68	0.00	29.830 
09:20	74.6	74.6	74.6	84	69.4	1	5	68	0.00	29.830 
09:25	74.7	74.7	74.7	84	69.5	1	4	68	0.00	29.830 
09:30	75.3	75.3	75.8	82	69.4	1	3	68	0.00	29.834 
09:35	75.4	75.4	76.0	81	69.1	0	3	68	0.00	29.834 
09:40	75.6	75.6	76.3	81	69.3	0	2	68	0.00	29.834 
09:45	76.1	76.1	77.1	80	69.5	1	4	68	0.00	29.831 
09:50	76.5	76.5	77.8	79	69.5	1	3	68	0.00	29.831 
09:55	76.5	76.5	78.0	75	68.0	0	1	68	0.00	29.831 
10:00	76.5	76.5	78.1	74	67.6	0	2	68	0.00	29.835 
10:05	76.7	76.7	78.3	74	67.8	0	1	68	0.00	29.835 
10:10	76.7	76.7	78.3	73	67.4	0	1	68	0.00	29.835 
10:15	76.8	76.8	78.5	73	67.5	0	0	---	0.00	29.845 
10:20	77.0	77.0	78.7	73	67.7	0	2	68	0.00	29.845 
10:25	77.2	77.2	79.0	72	67.5	0	1	68	0.00	29.845 
10:30	77.6	77.6	79.5	73	68.2	0	1	68	0.00	29.845 
10:35	77.6	77.6	79.5	72	67.8	1	3	68	0.00	29.845 
10:40	77.6	77.6	79.5	72	67.8	0	1	135	0.00	29.845 
10:45	77.6	77.6	79.5	73	68.2	0	2	135	0.00	29.846 
10:50	77.7	77.7	79.7	73	68.3	0	2	135	0.00	29.846 
10:55	77.9	77.9	79.9	71	67.7	0	2	135	0.00	29.846 
11:00	78.1	78.1	80.3	73	68.7	0	1	135	0.00	29.855 
11:05	78.6	78.6	80.9	71	68.4	1	4	135	0.00	29.855 
11:10	78.6	78.6	81.0	72	68.8	1	4	135	0.00	29.855 
11:15	78.8	78.8	81.3	72	69.0	0	3	135	0.00	29.851 
11:20	79.0	79.0	81.6	73	69.6	0	2	135	0.00	29.851 
11:25	79.4	79.4	82.1	71	69.2	1	4	135	0.00	29.851 
11:30	80.1	80.1	83.5	73	70.6	0	3	135	0.00	29.849 
11:35	81.1	81.1	84.5	68	69.5	1	2	135	0.00	29.849 
11:40	81.4	81.4	85.0	68	69.8	0	2	135	0.00	29.849 
11:45	81.8	81.8	85.1	65	68.9	0	2	135	0.00	29.851 
11:50	82.2	82.2	85.7	65	69.2	0	2	135	0.00	29.851 
11:55	82.0	82.0	85.4	65	69.0	1	4	135	0.00	29.851 
12:00	81.4	81.4	85.0	68	69.8	1	4	112	0.00	29.849 
12:05	81.1	81.1	84.6	69	69.9	0	1	112	0.00	29.849 
12:10	80.9	80.9	84.1	68	69.3	2	4	90	0.00	29.849 
12:15	81.1	81.1	84.6	69	69.9	1	4	90	0.00	29.851 
12:20	81.4	81.4	85.0	68	69.8	1	4	90	0.00	29.851 
12:25	82.0	82.0	86.0	68	70.4	1	3	90	0.00	29.851 
12:30	82.4	82.4	87.7	72	72.4	1	4	90	0.00	29.846 
12:35	82.4	82.4	87.4	71	72.0	1	5	90	0.00	29.846 
12:40	82.0	82.0	86.7	71	71.6	1	4	90	0.00	29.846 
12:45	81.6	81.6	86.1	72	71.7	1	5	90	0.00	29.849 
12:50	81.4	81.4	85.9	73	71.9	1	5	90	0.00	29.849 
12:55	81.2	81.2	85.5	73	71.7	2	7	112	0.00	29.849 
13:00	81.4	81.4	85.7	72	71.5	1	4	112	0.00	29.847 
13:05	81.4	81.4	85.7	72	71.5	2	6	112	0.00	29.847 
13:10	81.4	81.4	85.9	73	71.9	1	4	112	0.00	29.847 
13:15	81.8	81.8	86.7	73	72.3	1	4	112	0.00	29.843 
13:20	82.2	82.2	87.3	72	72.2	1	4	112	0.00	29.843 
13:25	82.6	82.6	88.1	72	72.6	1	5	112	0.00	29.843 
13:30	83.0	83.0	88.7	71	72.6	1	4	112	0.00	29.838 
13:35	82.8	82.8	88.0	70	72.0	1	3	112	0.00	29.838 
13:40	83.2	83.2	89.7	73	73.6	1	5	112	0.00	29.838 
13:45	83.4	83.4	88.6	68	71.7	2	5	90	0.00	29.835 
13:50	83.4	83.4	88.9	69	72.1	1	5	90	0.00	29.835 
13:55	83.4	83.4	88.6	68	71.7	2	4	90	0.00	29.835 
14:00	83.4	83.4	88.6	68	71.7	1	4	68	0.00	29.831 
14:05	83.4	83.4	88.9	69	72.1	2	6	68	0.00	29.831 
14:10	83.6	83.6	89.0	68	71.9	1	3	112	0.00	29.831 
14:15	84.0	84.0	88.9	65	70.9	1	5	112	0.00	29.830 
14:20	84.0	84.0	89.8	68	72.3	1	3	112	0.00	29.830 
14:25	84.1	84.1	90.0	68	72.4	1	4	112	0.00	29.830 
14:30	84.3	84.3	89.8	66	71.7	2	4	112	0.00	29.827 
14:35	84.5	84.5	90.5	67	72.3	2	5	112	0.00	29.827 
14:40	84.5	84.5	90.9	68	72.7	1	4	112	0.00	29.827 
14:45	84.3	84.3	90.1	67	72.1	2	6	112	0.00	29.819 
14:50	84.1	84.1	90.0	68	72.4	1	4	112	0.00	29.819 
14:55	84.0	84.0	89.5	67	71.8	2	6	112	0.00	29.819 
15:00	84.1	84.1	90.0	68	72.4	1	5	112	0.00	29.815 
15:05	84.7	84.7	91.7	69	73.4	1	4	112	0.00	29.815 
15:10	85.3	85.3	92.2	67	73.1	1	3	112	0.00	29.815 
15:15	85.5	85.5	92.3	66	72.8	1	4	112	0.00	29.813 
15:20	85.7	85.7	92.3	65	72.5	2	5	112	0.00	29.813 
15:25	85.7	85.7	92.7	66	73.0	1	4	112	0.00	29.813 
15:30	85.7	85.7	92.3	65	72.5	2	5	112	0.00	29.812 
15:35	85.5	85.5	91.9	65	72.4	1	5	90	0.00	29.812 
15:40	85.3	85.3	91.9	66	72.6	2	5	90	0.00	29.812 
15:45	85.3	85.3	91.5	65	72.2	1	4	90	0.00	29.812 
15:50	84.9	84.9	91.0	66	72.2	2	7	90	0.00	29.812 
15:55	84.7	84.7	90.6	66	72.1	1	5	90	0.00	29.812 
16:00	84.5	84.5	90.5	67	72.3	1	5	90	0.00	29.811 
16:05	84.3	84.3	90.1	67	72.1	1	4	90	0.00	29.811 
16:10	84.3	84.3	90.1	67	72.1	2	5	90	0.00	29.811 
16:15	84.5	84.5	90.5	67	72.3	3	6	90	0.00	29.811 
16:20	84.9	84.9	91.0	66	72.2	2	6	68	0.00	29.811 
16:25	85.1	85.1	91.5	66	72.4	3	6	90	0.00	29.811 
16:30	85.1	85.1	91.1	65	72.0	2	7	90	0.00	29.808 
16:35	84.9	84.9	90.7	65	71.8	3	7	90	0.00	29.808 
16:40	84.7	84.7	90.6	66	72.1	1	5	90	0.00	29.808 
16:45	84.3	84.3	89.8	66	71.7	2	6	90	0.00	29.799 
16:50	83.8	83.8	89.1	67	71.6	2	4	90	0.00	29.799 
16:55	83.6	83.6	88.7	67	71.5	3	7	90	0.00	29.799 
17:00	83.6	83.6	89.3	69	72.3	2	5	90	0.00	29.790 
17:05	83.6	83.6	89.0	68	71.9	2	6	90	0.00	29.790 
17:10	83.8	83.8	89.7	69	72.5	2	7	90	0.00	29.790 
17:15	84.0	84.0	89.5	67	71.8	3	6	90	0.00	29.784 
17:20	83.6	83.6	88.7	67	71.5	3	7	90	0.00	29.784 
17:25	83.8	83.8	89.4	68	72.1	1	3	90	0.00	29.784 
17:30	84.0	84.0	89.5	67	71.8	2	4	90	0.00	29.790 
17:35	84.0	84.0	89.5	67	71.8	2	6	90	0.00	29.790 
17:40	83.8	83.8	89.4	68	72.1	3	9	90	0.00	29.790 
17:45	83.8	83.8	89.4	68	72.1	1	6	68	0.00	29.794 
17:50	83.6	83.6	89.0	68	71.9	2	6	90	0.00	29.794 
17:55	83.2	83.2	88.2	68	71.5	2	5	90	0.00	29.794 
18:00	83.0	83.0	87.9	68	71.3	2	6	90	0.00	29.789 
18:05	82.8	82.8	87.7	69	71.6	1	4	68	0.00	29.789 
18:10	82.6	82.6	87.3	69	71.4	3	6	112	0.00	29.789 
18:15	82.2	82.2	86.8	70	71.4	4	7	90	0.00	29.794 
18:20	81.8	81.8	86.3	71	71.5	3	7	68	0.00	29.794 
18:25	81.6	81.6	85.9	71	71.3	2	6	68	0.00	29.794 
18:30	81.2	81.2	85.2	71	70.9	1	5	68	0.00	29.803 
18:35	81.2	81.2	85.3	72	71.3	1	5	68	0.00	29.803 
18:40	80.9	80.9	84.8	72	71.0	2	7	90	0.00	29.803 
18:45	80.7	80.7	84.4	72	70.8	3	6	90	0.00	29.803 
18:50	80.5	80.5	84.1	72	70.6	2	6	90	0.00	29.803 
18:55	80.3	80.3	83.9	73	70.8	3	5	112	0.00	29.803 
19:00	80.1	80.1	83.5	73	70.6	3	7	90	0.00	29.805 
19:05	79.8	79.8	82.9	72	69.9	3	6	90	0.00	29.805 
19:10	79.4	79.4	82.3	73	70.0	3	6	90	0.00	29.805 
19:15	79.2	79.2	82.1	74	70.2	2	6	90	0.00	29.802 
19:20	79.0	79.0	81.6	73	69.6	2	5	68	0.00	29.802 
19:25	78.8	78.8	81.4	74	69.8	2	5	68	0.00	29.802 
19:30	78.6	78.6	81.1	74	69.6	1	3	68	0.00	29.801 
19:35	78.5	78.5	80.9	74	69.5	1	5	68	0.00	29.801 
19:40	78.1	78.1	80.3	74	69.1	1	5	112	0.00	29.801 
19:45	77.7	77.7	79.7	74	68.7	2	6	90	0.00	29.808 
19:50	77.6	77.6	79.6	74	68.6	2	10	90	0.00	29.808 
19:55	77.2	77.2	79.0	74	68.3	2	7	112	0.00	29.808 
20:00	76.8	76.8	78.4	74	67.9	2	7	90	0.00	29.804 
20:05	76.5	76.5	78.1	74	67.6	2	7	112	0.00	29.804 
20:10	76.1	76.1	77.5	74	67.2	1	5	90	0.00	29.804 
20:15	75.8	75.8	77.2	74	66.9	2	5	68	0.00	29.804 
20:20	75.4	75.4	76.7	74	66.5	2	7	90	0.00	29.804 
20:25	75.3	75.3	76.6	74	66.4	2	7	68	0.00	29.804 
20:30	74.9	74.9	74.9	74	66.0	2	6	68	0.00	29.806 
20:35	74.6	74.6	74.6	74	65.7	2	5	68	0.00	29.806 
20:40	74.4	74.4	74.4	74	65.6	3	11	68	0.00	29.806 
20:45	74.0	74.0	74.0	75	65.6	1	6	90	0.00	29.807 
20:50	73.9	73.9	73.9	75	65.5	2	4	90	0.00	29.807 
20:55	73.7	73.7	73.7	75	65.3	2	7	90	0.00	29.807 
21:00	73.5	73.5	73.5	76	65.5	1	4	90	0.00	29.808 
21:05	73.3	73.3	73.3	76	65.3	1	3	90	0.00	29.808 
21:10	73.0	73.0	73.0	76	65.0	1	4	90	0.00	29.808 
21:15	72.8	72.8	72.8	77	65.2	0	3	90	0.00	29.814 
21:20	72.5	72.5	72.5	77	64.9	1	3	90	0.00	29.814 
21:25	72.3	72.3	72.3	77	64.7	2	6	90	0.00	29.814 
21:30	72.1	72.1	72.1	77	64.5	1	4	90	0.00	29.813 
21:35	71.8	71.8	71.8	77	64.2	2	6	90	0.00	29.813 
21:40	71.6	71.6	71.6	77	64.0	1	4	90	0.00	29.813 
21:45	71.5	71.5	71.5	78	64.3	1	9	112	0.00	29.820 
21:50	71.3	71.3	71.3	78	64.1	1	3	112	0.00	29.820 
21:55	71.1	71.1	71.1	78	63.9	1	4	112	0.00	29.820 
22:00	70.9	70.9	70.9	78	63.7	1	4	112	0.00	29.823 
22:05	70.8	70.8	70.8	78	63.6	1	5	90	0.00	29.823 
22:10	70.8	70.8	70.8	78	63.6	1	3	90	0.00	29.823 
22:15	70.6	70.6	70.6	78	63.4	1	4	90	0.00	29.822 
22:20	70.4	70.4	70.4	78	63.2	1	3	90	0.00	29.822 
22:25	70.1	70.1	70.1	77	62.5	1	4	90	0.00	29.822 
22:30	69.9	69.9	69.9	77	62.3	1	5	90	0.00	29.827 
22:35	69.8	69.8	69.8	78	62.6	1	4	90	0.00	29.827 
22:40	69.6	69.6	69.6	77	62.1	1	4	90	0.00	29.827 
22:45	69.6	69.6	69.6	77	62.1	1	3	90	0.00	29.825 
22:50	69.4	69.4	69.4	77	61.9	1	3	90	0.00	29.825 
22:55	69.4	69.4	69.4	78	62.2	1	4	90	0.00	29.825 
23:00	69.3	69.3	69.3	78	62.1	1	4	90	0.00	29.828 
23:05	69.3	69.3	69.3	78	62.1	1	5	68	0.00	29.828 
23:10	69.1	69.1	69.1	77	61.6	2	5	68	0.00	29.828 
23:15	68.9	68.9	68.9	77	61.4	1	5	90	0.00	29.826 
23:20	68.8	68.8	68.8	77	61.3	1	5	90	0.00	29.826 
23:25	68.8	68.8	68.8	78	61.7	0	2	90	0.00	29.826 
23:30	68.6	68.6	68.6	78	61.5	1	3	90	0.00	29.824 
23:35	68.6	68.6	68.6	79	61.8	0	2	90	0.00	29.824 
23:40	68.4	68.4	68.4	78	61.3	0	2	90	0.00	29.824 
23:45	68.3	68.3	68.3	78	61.2	0	3	90	0.00	29.827 
23:50	68.1	68.1	68.1	77	60.6	1	3	90	0.00	29.827 
23:55	67.9	67.9	67.9	76	60.0	0	3	90	0.00	29.827 

CoCoRaHS
IN-AL-39
A2 Web Hosting
Creative Commons License
GoDaddy
search engine by freefind advanced

loaded 2018-11-15 16:13:18 • last modified 2010-11-18 10:43:29
Privacy PolicyDisclaimer
• wx.awcolley.com is powered by PmWiki v.2002016 •
• all content (unless otherwise noted) © 2018 A W Colley